Time;durP1;ratioP1;P1;durP2;ratioP2;P2;SDS_P1;SDS_P2;PMS_P1;PMS_P2;Temp;Humidity;BMP_temperature;BMP_pressure;BME280_temperature;BME280_humidity;BME280_pressure;Samples;Min_cycle;Max_cycle;Signal;HPM_P1;HPM_P2
2021/09/02 00:00:08;;;;;;;;;;;;;;;14.99;87.64;99403.22;1750727;80;20330;-79
2021/09/02 00:02:35;;;;;;;;;;;;;;;14.99;87.96;99400.56;1750739;82;20130;-76
2021/09/02 00:05:01;;;;;;;;;;;;;;;14.96;87.76;99409.58;1751146;82;20324;-77
2021/09/02 00:07:28;;;;;;;;;;;;;;;14.94;88.61;99407.98;1751279;82;20183;-76
2021/09/02 00:09:55;;;;;;;;;;;;;;;14.89;87.53;99409.13;1751149;82;21364;-78
2021/09/02 00:12:22;;;;;;;;;;;;;;;14.87;88.23;99404.41;1754228;80;20211;-76
2021/09/02 00:14:50;;;;;;;;;;;;;;;14.82;88.87;99411.81;1757857;81;20183;-77
2021/09/02 00:17:20;;;;;;;;;;;;;;;14.77;88.19;99409.95;1757708;81;20222;-76
2021/09/02 00:19:46;;;;;;;;;;;;;;;14.73;89.13;99413.75;1757348;81;20208;-77
2021/09/02 00:22:12;;;;;;;;;;;;;;;14.68;89.21;99415.38;1756926;81;21571;-78
2021/09/02 00:24:40;;;;;;;;;;;;;;;14.68;89.81;99413.20;1756993;81;20166;-76
2021/09/02 00:27:07;;;;;;;;;;;;;;;14.65;90.46;99410.73;1756898;81;20149;-76
2021/09/02 00:29:34;;;;;;;;;;;;;;;14.62;89.51;99420.22;1755987;81;20172;-77
2021/09/02 00:32:01;;;;;;;;;;;;;;;14.58;90.16;99419.55;1756172;81;20144;-76
2021/09/02 00:34:28;;;;;;;;;;;;;;;14.56;90.23;99419.28;1756246;81;21234;-77
2021/09/02 00:36:58;;;;;;;;;;;;;;;14.54;90.48;99418.08;1755518;80;20353;-77
2021/09/02 00:39:24;;;;;;;;;;;;;;;14.53;91.53;99423.44;1756416;80;20208;-77
2021/09/02 00:41:52;;;;;;;;;;;;;;;14.50;90.93;99424.48;1756275;81;20215;-78
2021/09/02 00:44:39;;;;;;;;;;;;;;;14.48;91.41;99425.90;1756254;81;20148;-77
2021/09/02 00:47:09;;;;;;;;;;;;;;;14.44;91.44;99423.06;1727615;81;20963;-78
2021/09/02 00:49:36;;;;;;;;;;;;;;;14.37;91.60;99424.41;1755688;81;20172;-77
2021/09/02 00:52:11;;;;;;;;;;;;;;;14.34;92.01;99428.59;1755859;81;20167;-76
2021/09/02 00:54:38;;;;;;;;;;;;;;;14.29;92.39;99425.39;1762365;80;20208;-76
2021/09/02 00:57:12;;;;;;;;;;;;;;;14.27;92.53;99424.63;1789166;80;20190;-76
2021/09/02 00:59:38;;;;;;;;;;;;;;;14.24;93.06;99432.75;1790873;80;20977;-76
2021/09/02 01:02:05;;;;;;;;;;;;;;;14.19;92.94;99437.49;1791512;80;20146;-77
2021/09/02 01:04:32;;;;;;;;;;;;;;;14.17;93.48;99427.47;1790355;80;20150;-77
2021/09/02 01:06:59;;;;;;;;;;;;;;;14.17;93.82;99439.38;1788184;80;20143;-76
2021/09/02 01:09:27;;;;;;;;;;;;;;;14.14;93.67;99431.64;1787519;80;20177;-76
2021/09/02 01:11:54;;;;;;;;;;;;;;;14.13;94.20;99429.48;1786560;80;20993;-76
2021/09/02 01:14:20;;;;;;;;;;;;;;;14.11;93.96;99439.79;1781500;80;20488;-75
2021/09/02 01:16:50;;;;;;;;;;;;;;;14.07;93.87;99431.17;1782098;80;20161;-76
2021/09/02 01:19:18;;;;;;;;;;;;;;;14.02;94.42;99438.08;1781511;80;20182;-76
2021/09/02 01:21:50;;;;;;;;;;;;;;;13.97;94.18;99432.23;1782078;80;20212;-77
2021/09/02 01:26:45;;;;;;;8.35;5.75;;;;;;;13.95;95.41;99432.80;1814885;79;23260;-75
2021/09/02 01:29:14;;;;;;;10.25;4.97;;;;;;;13.86;95.54;99433.36;1747022;80;21084;-77
2021/09/02 01:31:41;;;;;;;8.95;5.08;;;;;;;13.85;96.46;99436.97;1756808;80;21110;-75
2021/09/02 01:34:08;;;;;;;9.48;5.00;;;;;;;13.81;96.13;99432.80;1756481;80;21033;-76
2021/09/02 01:36:35;;;;;;;7.75;5.12;;;;;;;13.79;96.75;99428.07;1758193;80;21089;-76
2021/09/02 01:39:02;;;;;;;9.50;5.40;;;;;;;13.77;96.86;99433.92;1756519;81;20993;-76
2021/09/02 01:41:30;;;;;;;12.78;5.72;;;;;;;13.76;96.70;99426.95;1756631;80;21042;-76
2021/09/02 01:43:58;;;;;;;11.48;5.20;;;;;;;13.74;97.49;99428.83;1759341;81;21270;-76
2021/09/02 01:46:25;;;;;;;15.45;5.95;;;;;;;13.71;97.30;99429.00;1760435;81;20913;-76
2021/09/02 01:48:55;;;;;;;8.05;4.55;;;;;;;13.69;97.69;99427.80;1760003;80;22224;-77
2021/09/02 01:51:22;;;;;;;9.85;4.75;;;;;;;13.68;98.33;99430.52;1760110;81;20963;-76
2021/09/02 01:53:48;;;;;;;9.63;5.28;;;;;;;13.67;97.92;99427.03;1757044;81;21032;-76
2021/09/02 01:56:16;;;;;;;11.38;5.25;;;;;;;13.68;98.28;99418.61;1756819;81;21117;-77
2021/09/02 01:58:43;;;;;;;14.93;6.00;;;;;;;13.68;98.49;99429.20;1756635;80;21021;-77
2021/09/02 02:01:10;;;;;;;8.08;5.08;;;;;;;13.69;98.50;99421.63;1756512;80;21029;-77
2021/09/02 02:03:38;;;;;;;8.40;4.83;;;;;;;13.68;99.07;99422.58;1756608;81;20998;-76
2021/09/02 02:06:05;;;;;;;9.20;5.58;;;;;;;13.67;98.20;99420.89;1756403;80;21049;-77
2021/09/02 02:08:32;;;;;;;9.58;5.78;;;;;;;13.68;98.68;99421.27;1737484;81;21161;-75
2021/09/02 02:10:58;;;;;;;8.38;5.62;;;;;;;13.67;98.53;99422.22;1756412;80;21092;-76
2021/09/02 02:13:25;;;;;;;9.43;5.75;;;;;;;13.68;98.38;99415.97;1756355;80;21097;-76
2021/09/02 02:15:51;;;;;;;7.78;5.40;;;;;;;13.70;98.89;99423.34;1756448;81;21062;-77
2021/09/02 02:18:19;;;;;;;11.28;6.05;;;;;;;13.67;98.66;99422.22;1756499;80;21072;-77
2021/09/02 02:20:47;;;;;;;8.50;5.33;;;;;;;13.67;98.87;99419.09;1756299;81;21505;-77
2021/09/02 02:23:14;;;;;;;10.72;6.30;;;;;;;13.68;99.37;99421.27;1756461;80;21108;-78
2021/09/02 02:25:42;;;;;;;8.78;5.60;;;;;;;13.69;98.86;99422.95;1750458;80;21070;-76
2021/09/02 02:28:09;;;;;;;11.05;6.50;;;;;;;13.69;98.99;99427.80;1743409;81;21022;-76
2021/09/02 02:30:36;;;;;;;9.15;5.78;;;;;;;13.69;98.66;99423.83;1742890;82;21073;-76
2021/09/02 02:33:03;;;;;;;9.95;5.60;;;;;;;13.70;98.88;99425.98;1743511;81;21074;-76
2021/09/02 02:35:31;;;;;;;8.30;4.90;;;;;;;13.71;99.56;99431.64;1745729;81;21046;-76
2021/09/02 02:37:58;;;;;;;9.73;5.75;;;;;;;13.71;99.05;99427.67;1744290;81;21077;-77
2021/09/02 02:40:26;;;;;;;8.13;4.78;;;;;;;13.75;99.38;99433.16;1745590;81;21017;-76
2021/09/02 02:42:53;;;;;;;8.30;5.90;;;;;;;13.75;99.19;99437.98;1743026;81;20991;-75
2021/09/02 02:45:23;;;;;;;7.87;5.53;;;;;;;13.76;99.05;99439.70;1742736;82;22235;-76
2021/09/02 02:47:50;;;;;;;9.10;6.08;;;;;;;13.77;99.74;99436.09;1743082;82;21037;-75
2021/09/02 02:50:18;;;;;;;10.43;6.28;;;;;;;13.79;99.48;99442.63;1741970;81;21033;-78
2021/09/02 02:52:46;;;;;;;10.88;6.12;;;;;;;13.81;99.54;99436.77;1742884;82;21082;-77
2021/09/02 02:55:13;;;;;;;10.08;5.67;;;;;;;13.81;99.84;99435.45;1742774;81;21026;-74
2021/09/02 02:57:41;;;;;;;9.03;5.72;;;;;;;13.83;99.35;99436.21;1742670;81;21054;-77
2021/09/02 03:00:13;;;;;;;11.15;6.47;;;;;;;13.84;99.60;99437.89;1741399;82;21046;-76
2021/09/02 03:02:41;;;;;;;11.05;6.12;;;;;;;13.83;99.03;99435.73;1702894;83;21541;-75
2021/09/02 03:05:11;;;;;;;9.13;6.47;;;;;;;13.85;98.87;99435.64;1712957;82;21027;-75
2021/09/02 03:07:40;;;;;;;18.42;5.83;;;;;;;13.86;99.29;99437.33;1713565;82;21010;-76
2021/09/02 03:10:09;;;;;;;10.72;6.55;;;;;;;13.87;98.47;99437.70;1712970;82;21963;-77
2021/09/02 03:12:39;;;;;;;11.43;6.10;;;;;;;13.89;98.75;99430.52;1713430;83;21026;-76
2021/09/02 03:15:08;;;;;;;8.03;5.90;;;;;;;13.88;98.83;99436.77;1712912;82;21062;-76
2021/09/02 03:17:37;;;;;;;14.73;6.95;;;;;;;13.87;98.03;99429.75;1713328;82;21089;-75
2021/09/02 03:20:06;;;;;;;8.15;5.72;;;;;;;13.89;98.43;99434.97;1713441;82;21101;-77
2021/09/02 03:22:33;;;;;;;10.78;6.20;;;;;;;13.89;97.94;99434.97;1713541;82;21093;-77
2021/09/02 03:24:59;;;;;;;9.35;6.62;;;;;;;13.89;97.74;99438.45;1713570;82;21055;-77
2021/09/02 03:27:26;;;;;;;8.58;5.92;;;;;;;13.89;97.59;99442.42;1726552;83;21053;-76
2021/09/02 03:29:55;;;;;;;14.13;6.20;;;;;;;13.87;97.09;99442.99;1726086;82;21004;-76
2021/09/02 03:32:22;;;;;;;12.20;5.90;;;;;;;13.87;97.32;99442.99;1726291;82;21060;-78
2021/09/02 03:34:48;;;;;;;8.50;5.72;;;;;;;13.86;97.48;99441.30;1725810;82;21476;-76
2021/09/02 03:37:17;;;;;;;10.23;6.08;;;;;;;13.87;97.04;99450.09;1726247;82;20994;-77
2021/09/02 03:39:45;;;;;;;8.85;6.25;;;;;;;13.88;97.44;99450.00;1726024;82;21108;-77
2021/09/02 03:42:13;;;;;;;12.90;6.22;;;;;;;13.90;96.93;99446.80;1725823;82;21057;-78
2021/09/02 03:44:41;;;;;;;9.15;6.28;;;;;;;13.91;96.77;99444.51;1726005;83;21093;-77
2021/09/02 03:47:09;;;;;;;10.38;6.58;;;;;;;13.93;96.83;99443.95;1725862;83;21125;-78
2021/09/02 03:49:35;;;;;;;9.23;5.85;;;;;;;13.92;96.11;99450.20;1725629;81;21014;-77
2021/09/02 03:52:02;;;;;;;8.73;5.72;;;;;;;13.93;96.07;99453.21;1725673;82;21559;-77
2021/09/02 03:54:29;;;;;;;10.65;5.65;;;;;;;13.93;96.42;99439.98;1729842;81;21582;-78
2021/09/02 03:56:56;;;;;;;6.75;4.90;;;;;;;13.96;96.10;99445.06;1755843;81;21121;-78
2021/09/02 03:59:22;;;;;;;10.98;5.42;;;;;;;14.06;96.90;99454.16;1755886;81;21034;-78
2021/09/02 04:01:49;;;;;;;10.30;5.85;;;;;;;14.10;95.66;99446.86;1755829;81;21101;-77
2021/09/02 04:04:15;;;;;;;11.48;5.67;;;;;;;14.10;94.76;99452.16;1755695;81;21046;-76
2021/09/02 04:06:43;;;;;;;10.88;5.72;;;;;;;14.09;94.80;99452.27;1756308;81;21041;-76
2021/09/02 04:09:11;;;;;;;10.55;5.92;;;;;;;14.09;94.42;99458.89;1757803;81;21010;-77
2021/09/02 04:11:39;;;;;;;8.88;5.40;;;;;;;14.09;95.52;99460.22;1757165;80;21034;-78
2021/09/02 04:14:06;;;;;;;11.18;5.40;;;;;;;14.10;94.77;99456.61;1755794;80;21010;-77
2021/09/02 04:16:32;;;;;;;8.53;5.65;;;;;;;14.11;94.81;99469.77;1755520;80;21112;-78
2021/09/02 04:18:59;;;;;;;10.70;4.85;;;;;;;14.13;95.21;99476.30;1756807;80;21045;-78
2021/09/02 04:21:26;;;;;;;8.50;5.17;;;;;;;14.16;94.97;99476.09;1755857;81;21039;-77
2021/09/02 04:23:52;;;;;;;11.55;5.00;;;;;;;14.19;95.66;99475.41;1755493;81;21132;-78
2021/09/02 04:26:19;;;;;;;17.48;5.50;;;;;;;14.22;95.03;99474.39;1755709;81;21116;-77
2021/09/02 04:28:46;;;;;;;10.50;4.92;;;;;;;14.22;94.31;99474.39;1756347;81;21516;-76
2021/09/02 04:31:12;;;;;;;9.35;4.90;;;;;;;14.20;94.96;99481.58;1756280;80;21073;-78
2021/09/02 04:33:38;;;;;;;8.40;4.80;;;;;;;14.22;94.10;99474.39;1755736;81;21026;-78
2021/09/02 04:36:07;;;;;;;10.50;5.42;;;;;;;14.24;94.70;99473.80;1755869;81;21034;-79
2021/09/02 04:38:38;;;;;;;13.68;5.28;;;;;;;14.22;94.16;99473.08;1755688;80;20997;-78
2021/09/02 04:41:06;;;;;;;10.35;4.90;;;;;;;14.19;93.27;99476.73;1755769;80;21023;-79
2021/09/02 04:43:33;;;;;;;9.70;4.92;;;;;;;14.20;94.85;99477.61;1738755;80;21005;-76
2021/09/02 04:46:00;;;;;;;8.98;5.33;;;;;;;14.26;94.06;99481.17;1756116;80;21049;-77
2021/09/02 04:48:26;;;;;;;9.40;4.20;;;;;;;14.32;93.19;99474.66;1755939;81;21153;-77
2021/09/02 04:50:53;;;;;;;11.28;4.72;;;;;;;14.33;93.33;99479.84;1755683;80;21021;-77
2021/09/02 04:53:20;;;;;;;13.70;4.97;;;;;;;14.37;92.80;99482.68;1755864;81;21093;-76
2021/09/02 04:55:46;;;;;;;10.38;5.22;;;;;;;14.41;92.80;99474.92;1755957;81;21084;-77
2021/09/02 04:58:18;;;;;;;7.58;4.70;;;;;;;14.39;92.03;99482.12;1755699;81;21073;-77
2021/09/02 05:00:44;;;;;;;;;;;;;;;14.39;91.94;99487.89;1758399;81;21875;-78
2021/09/02 05:03:11;;;;;;;11.18;4.78;;;;;;;14.40;92.68;99483.84;1740135;81;20172;-76
2021/09/02 05:05:40;;;;;;;11.10;4.37;;;;;;;14.40;91.76;99486.48;1757266;81;21670;-78
2021/09/02 05:08:06;;;;;;;5.97;4.00;;;;;;;14.45;92.03;99483.06;1756119;81;21069;-77
2021/09/02 05:10:34;;;;;;;10.00;4.80;;;;;;;14.51;91.97;99482.29;1755449;81;21044;-77
2021/09/02 05:13:01;;;;;;;8.85;4.42;;;;;;;14.51;90.79;99480.48;1756049;81;21951;-80
2021/09/02 05:15:28;;;;;;;8.33;4.37;;;;;;;14.52;91.55;99489.31;1755712;81;21082;-78
2021/09/02 05:17:56;;;;;;;9.43;4.47;;;;;;;14.54;90.56;99490.03;1755781;81;21108;-78
2021/09/02 05:20:23;;;;;;;7.15;4.65;;;;;;;14.55;90.21;99485.16;1755831;81;21061;-78
2021/09/02 05:22:50;;;;;;;8.05;4.65;;;;;;;14.54;90.94;99486.06;1755864;81;21033;-78
2021/09/02 05:25:18;;;;;;;9.40;5.20;;;;;;;14.53;90.07;99478.59;1756124;81;21631;-78
2021/09/02 05:27:46;;;;;;;12.10;5.22;;;;;;;14.48;90.42;99485.51;1744022;81;21101;-79
2021/09/02 05:30:13;;;;;;;12.90;4.80;;;;;;;14.43;89.84;99489.41;1742362;82;21662;-78
2021/09/02 05:32:42;;;;;;;6.87;4.22;;;;;;;14.43;90.44;99482.78;1742345;81;21582;-78
2021/09/02 05:35:09;;;;;;;7.90;4.78;;;;;;;14.48;91.51;99484.18;1742560;81;22013;-77
2021/09/02 05:37:35;;;;;;;11.30;4.90;;;;;;;14.56;90.61;99482.87;1742706;82;21483;-77
2021/09/02 05:40:04;;;;;;;10.40;4.30;;;;;;;14.63;90.27;99484.17;1742529;82;20994;-79
2021/09/02 05:42:31;;;;;;;19.27;5.55;;;;;;;14.72;89.69;99482.75;1742546;81;21575;-77
2021/09/02 05:44:57;;;;;;;7.70;4.50;;;;;;;14.80;88.41;99479.98;1742415;82;20995;-77
2021/09/02 05:47:25;;;;;;;14.23;4.97;;;;;;;14.93;88.38;99475.20;1742618;81;21101;-76
2021/09/02 05:49:52;;;;;;;13.43;4.70;;;;;;;14.98;86.08;99474.45;1742467;82;22181;-78
2021/09/02 05:52:18;;;;;;;11.20;4.72;;;;;;;15.08;86.07;99478.17;1742811;82;21081;-76
2021/09/02 05:54:44;;;;;;;10.13;5.40;;;;;;;15.14;85.56;99480.44;1731918;82;21141;-77
2021/09/02 05:57:11;;;;;;;10.93;5.03;;;;;;;15.17;83.94;99476.23;1702742;84;21100;-77
2021/09/02 05:59:38;;;;;;;13.30;5.62;;;;;;;15.21;85.51;99483.05;1702797;83;21031;-78
2021/09/02 06:02:04;;;;;;;9.78;4.55;;;;;;;15.28;84.17;99477.70;1703376;84;21130;-79
2021/09/02 06:04:31;;;;;;;15.32;4.67;;;;;;;15.39;83.46;99481.42;1702945;84;21028;-79
2021/09/02 06:06:58;;;;;;;12.20;4.80;;;;;;;15.46;82.63;99491.55;1702730;84;21057;-76
2021/09/02 06:09:24;;;;;;;12.60;4.62;;;;;;;15.54;81.20;99492.34;1703377;83;21116;-79
2021/09/02 06:11:52;;;;;;;9.90;4.70;;;;;;;15.60;80.68;99493.72;1703457;84;21056;-79
2021/09/02 06:14:20;;;;;;;14.15;4.53;;;;;;;15.56;79.29;99503.70;1702683;84;21171;-78
2021/09/02 06:16:48;;;;;;;31.17;4.80;;;;;;;15.51;78.40;99492.56;1702965;83;21119;-78
2021/09/02 06:19:14;;;;;;;10.98;4.45;;;;;;;15.47;78.11;99487.08;1703070;84;21289;-77
2021/09/02 06:21:41;;;;;;;13.83;3.92;;;;;;;15.36;76.26;99504.20;1703043;84;21113;-78
2021/09/02 06:24:07;;;;;;;8.40;3.98;;;;;;;15.27;75.77;99510.95;1703167;83;21564;-77
2021/09/02 06:26:34;;;;;;;12.25;3.75;;;;;;;15.16;76.88;99513.02;1704505;83;21139;-79
2021/09/02 06:29:01;;;;;;;8.90;3.83;;;;;;;15.10;74.79;99504.13;1703648;84;21057;-79
2021/09/02 06:31:28;;;;;;;7.30;3.47;;;;;;;15.07;76.57;99516.27;1702949;83;21606;-80
2021/09/02 06:33:54;;;;;;;9.40;3.60;;;;;;;15.02;75.50;99511.71;1702671;84;21061;-77
2021/09/02 06:36:21;;;;;;;6.20;3.77;;;;;;;14.97;73.80;99517.80;1702736;83;21065;-79
2021/09/02 06:38:47;;;;;;;7.42;3.55;;;;;;;14.90;74.74;99519.51;1702847;83;21635;-79
2021/09/02 06:41:15;;;;;;;14.43;3.35;;;;;;;14.89;72.43;99523.13;1702793;83;21040;-79
2021/09/02 06:43:43;;;;;;;8.08;3.42;;;;;;;14.95;75.68;99532.47;1702823;83;21041;-78
2021/09/02 06:46:12;;;;;;;;;;;;;;;14.98;71.28;99521.69;1686110;84;21076;-79
2021/09/02 06:48:43;;;;;;;10.85;2.95;;;;;;;15.33;70.12;99521.17;1702748;83;20554;-78
2021/09/02 06:51:11;;;;;;;8.25;3.80;;;;;;;16.02;69.83;99517.00;1682417;84;21811;-78
2021/09/02 06:53:39;;;;;;;8.10;3.10;;;;;;;16.93;64.06;99516.28;1702604;84;21097;-78
2021/09/02 06:56:05;;;;;;;35.63;4.03;;;;;;;17.92;56.67;99498.25;1735677;82;21089;-78
2021/09/02 06:58:35;;;;;;;19.52;2.83;;;;;;;18.60;52.74;99520.45;1742695;81;21592;-78
2021/09/02 07:01:02;;;;;;;10.35;3.00;;;;;;;18.90;47.45;99515.81;1742797;81;21042;-81
2021/09/02 07:03:28;;;;;;;9.20;3.10;;;;;;;19.07;48.58;99527.77;1743190;81;22164;-77
2021/09/02 07:05:55;;;;;;;6.00;2.42;;;;;;;19.30;46.71;99528.54;1742602;82;20990;-79
2021/09/02 07:08:22;;;;;;;5.28;2.47;;;;;;;19.36;45.90;99533.38;1742788;81;21030;-79
2021/09/02 07:10:49;;;;;;;11.43;2.87;;;;;;;19.49;48.30;99533.22;1742184;82;21047;-81
2021/09/02 07:13:16;;;;;;;5.25;2.60;;;;;;;19.69;45.27;99526.22;1742215;82;21093;-78
2021/09/02 07:15:44;;;;;;;8.38;2.87;;;;;;;19.99;44.20;99525.91;1743331;82;22165;-79
2021/09/02 07:18:12;;;;;;;5.00;2.45;;;;;;;20.41;46.42;99521.36;1742994;81;21030;-78
2021/09/02 07:20:38;;;;;;;9.88;3.20;;;;;;;20.55;43.09;99518.81;1742625;81;21085;-78
2021/09/02 07:23:05;;;;;;;16.00;2.50;;;;;;;20.32;42.82;99514.98;1743104;81;21055;-80
2021/09/02 07:25:32;;;;;;;10.35;3.20;;;;;;;20.19;40.85;99529.05;1742809;81;21093;-77
2021/09/02 07:27:58;;;;;;;5.87;2.42;;;;;;;20.26;41.02;99530.71;1742481;81;21511;-77
2021/09/02 07:30:24;;;;;;;14.65;2.90;;;;;;;20.44;40.89;99522.92;1742782;81;21070;-77
2021/09/02 07:32:51;;;;;;;18.50;3.37;;;;;;;20.96;39.46;99523.67;1742739;82;21584;-77
2021/09/02 07:35:17;;;;;;;11.65;2.35;;;;;;;21.48;39.19;99522.95;1742975;81;21038;-77
2021/09/02 07:37:46;;;;;;;4.35;1.80;;;;;;;21.69;37.35;99507.22;1742477;81;21026;-77
2021/09/02 07:40:13;;;;;;;8.88;2.58;;;;;;;21.58;34.57;99525.65;1742158;81;21148;-77
2021/09/02 07:42:40;;;;;;;8.70;2.30;;;;;;;21.66;35.27;99513.70;1742609;81;21022;-78
2021/09/02 07:45:08;;;;;;;3.98;2.00;;;;;;;21.79;33.96;99513.42;1743003;81;21113;-77
2021/09/02 07:47:34;;;;;;;9.08;1.92;;;;;;;21.83;34.34;99513.45;1742542;82;21584;-76
2021/09/02 07:50:07;;;;;;;19.23;2.83;;;;;;;22.17;34.16;99519.66;1742524;81;21025;-76
2021/09/02 07:52:38;;;;;;;16.67;2.85;;;;;;;22.59;33.03;99527.28;1742653;81;21126;-77
2021/09/02 07:55:07;;;;;;;12.68;2.33;;;;;;;22.86;35.26;99520.23;1726089;81;21064;-78
2021/09/02 07:57:36;;;;;;;5.28;1.98;;;;;;;22.45;33.32;99519.73;1702616;84;21733;-77
2021/09/02 08:00:04;;;;;;;6.25;2.25;;;;;;;22.03;35.28;99510.25;1702529;84;21663;-75
2021/09/02 08:02:36;;;;;;;8.00;1.70;;;;;;;21.72;36.86;99519.84;1702602;84;21331;-76
2021/09/02 08:05:02;;;;;;;5.30;2.30;;;;;;;21.16;36.68;99526.73;1703044;84;21033;-76
2021/09/02 08:07:32;;;;;;;8.33;1.80;;;;;;;20.58;39.06;99521.23;1702681;84;21030;-76
2021/09/02 08:09:59;;;;;;;8.65;2.20;;;;;;;20.18;39.02;99522.03;1702963;84;21484;-78
2021/09/02 08:12:25;;;;;;;11.28;2.47;;;;;;;20.12;39.51;99529.23;1702997;84;21103;-76
2021/09/02 08:14:54;;;;;;;10.95;2.37;;;;;;;20.57;40.50;99536.94;1703104;84;21096;-76
2021/09/02 08:17:20;;;;;;;11.83;2.58;;;;;;;20.76;36.88;99521.94;1702993;83;21543;-77
2021/09/02 08:19:46;;;;;;;7.25;2.47;;;;;;;20.92;38.28;99518.23;1703193;84;21582;-77
2021/09/02 08:22:13;;;;;;;14.45;2.22;;;;;;;20.79;38.00;99532.35;1702923;83;21064;-75
2021/09/02 08:24:39;;;;;;;7.05;2.40;;;;;;;20.48;36.24;99508.30;1703088;84;21029;-77
2021/09/02 08:27:06;;;;;;;4.25;1.90;;;;;;;20.11;38.13;99524.88;1707772;83;21055;-76
2021/09/02 08:29:32;;;;;;;8.80;2.52;;;;;;;19.67;37.44;99513.47;1725926;83;21128;-77
2021/09/02 08:31:58;;;;;;;7.83;2.40;;;;;;;19.36;39.68;99526.70;1725541;83;21008;-78
2021/09/02 08:34:26;;;;;;;8.48;2.83;;;;;;;19.08;42.34;99528.98;1725793;83;21067;-77
2021/09/02 08:36:52;;;;;;;6.35;2.42;;;;;;;19.02;41.28;99536.16;1725908;83;21669;-77
2021/09/02 08:39:20;;;;;;;19.90;2.80;;;;;;;19.03;43.68;99527.69;1725795;83;21051;-77
2021/09/02 08:41:47;;;;;;;9.15;2.27;;;;;;;19.14;43.13;99524.11;1725776;83;21535;-78
2021/09/02 08:44:14;;;;;;;6.37;1.95;;;;;;;19.40;41.18;99520.64;1725652;83;21071;-76
2021/09/02 08:46:42;;;;;;;10.72;2.08;;;;;;;19.53;41.32;99515.09;1725147;83;21549;-77
2021/09/02 08:49:09;;;;;;;6.42;2.22;;;;;;;19.48;37.91;99519.49;1725837;83;21055;-77
2021/09/02 08:51:36;;;;;;;7.75;2.17;;;;;;;19.74;39.43;99532.04;1725606;83;21578;-77
2021/09/02 08:54:04;;;;;;;11.18;2.12;;;;;;;20.19;38.37;99515.69;1725858;83;21137;-77
2021/09/02 08:56:31;;;;;;;9.95;2.35;;;;;;;20.55;35.86;99518.81;1719638;82;22333;-77
2021/09/02 08:58:59;;;;;;;10.95;2.40;;;;;;;20.59;37.57;99518.94;1719856;83;21114;-78
2021/09/02 09:01:25;;;;;;;14.28;2.15;;;;;;;20.35;35.42;99510.35;1719620;83;21528;-75
2021/09/02 09:03:52;;;;;;;5.70;2.10;;;;;;;20.01;36.48;99515.45;1719879;82;21104;-78
2021/09/02 09:06:28;;;;;;;5.08;1.90;;;;;;;20.15;37.22;99524.95;1719607;82;21574;-78
2021/09/02 09:08:57;;;;;;;5.60;2.08;;;;;;;20.35;35.87;99521.05;1719849;82;21041;-78
2021/09/02 09:11:29;;;;;;;7.50;2.33;;;;;;;20.79;36.54;99509.11;1721392;83;21021;-78
2021/09/02 09:14:14;;;;;;;8.65;2.60;;;;;;;21.03;35.48;99503.39;1720119;82;21064;-77
2021/09/02 09:16:51;;;;;;;5.70;2.08;;;;;;;21.21;33.86;99519.63;1720455;82;21001;-78
2021/09/02 09:19:52;;;;;;;12.05;2.40;;;;;;;21.07;36.20;99522.22;1719965;82;21161;-77
2021/09/02 09:22:22;;;;;;;3.52;1.70;;;;;;;21.15;33.34;99519.67;1719958;83;21092;-77
2021/09/02 09:24:53;;;;;;;4.47;2.12;;;;;;;21.32;33.27;99521.30;1719743;82;21077;-77
2021/09/02 09:27:21;;;;;;;;;;;;;;;21.54;34.55;99515.70;1722585;83;21622;-78
2021/09/02 09:30:09;;;;;;;13.53;3.22;;;;;;;21.67;32.42;99511.87;1715178;82;20210;-77
2021/09/02 09:32:41;;;;;;;8.15;2.22;;;;;;;21.49;31.99;99516.62;1713721;82;21052;-77
2021/09/02 09:35:11;;;;;;;3.93;1.87;;;;;;;21.10;35.29;99523.27;1713339;82;21041;-77
2021/09/02 09:37:37;;;;;;;4.10;1.67;;;;;;;20.90;33.18;99528.23;1714097;82;21344;-78
2021/09/02 09:40:18;;;;;;;6.70;1.70;;;;;;;20.87;33.94;99535.20;1714266;82;21089;-77
2021/09/02 09:43:10;;;;;;;6.70;1.80;;;;;;;20.74;34.72;99530.92;1714155;82;21036;-78
2021/09/02 09:45:52;;;;;;;7.20;2.05;;;;;;;20.78;33.78;99544.89;1714528;83;21635;-77
2021/09/02 09:48:39;;;;;;;6.35;2.10;;;;;;;21.03;32.86;99533.34;1714426;82;21046;-77
2021/09/02 09:51:20;;;;;;;8.78;2.08;;;;;;;21.27;34.25;99539.62;1714441;82;21543;-77
2021/09/02 09:53:49;;;;;;;4.87;1.92;;;;;;;21.41;32.02;99535.72;1714573;83;21547;-77
2021/09/02 09:56:18;;;;;;;5.72;2.10;;;;;;;21.30;32.23;99540.67;1747232;82;21664;-78
2021/09/02 09:58:46;;;;;;;4.95;1.77;;;;;;;20.90;32.84;99531.75;1750614;82;21960;-77
2021/09/02 10:01:13;;;;;;;5.40;1.65;;;;;;;20.52;32.02;99544.47;1750767;82;21085;-77
2021/09/02 10:03:41;;;;;;;9.05;2.20;;;;;;;20.32;33.71;99536.37;1750669;82;22296;-76
2021/09/02 10:06:12;;;;;;;5.70;1.85;;;;;;;19.94;34.56;99556.20;1750713;82;21136;-77
2021/09/02 10:08:41;;;;;;;8.05;2.02;;;;;;;19.57;34.25;99565.95;1749858;81;21061;-77
2021/09/02 10:11:11;;;;;;;7.20;1.90;;;;;;;19.19;36.96;99572.65;1750867;82;21114;-78
2021/09/02 10:13:38;;;;;;;5.90;1.90;;;;;;;18.89;36.59;99573.29;1750617;82;21054;-78
2021/09/02 10:16:05;;;;;;;6.10;2.05;;;;;;;18.82;37.82;99578.30;1750796;82;21580;-77
2021/09/02 10:18:34;;;;;;;8.00;2.42;;;;;;;18.86;38.84;99573.92;1750576;82;21053;-78
2021/09/02 10:21:07;;;;;;;5.33;1.95;;;;;;;18.91;37.58;99566.02;1750464;82;21065;-77
2021/09/02 10:23:33;;;;;;;8.45;2.08;;;;;;;18.84;39.79;99570.53;1750593;82;21121;-77
2021/09/02 10:26:00;;;;;;;4.10;1.70;;;;;;;18.70;38.88;99572.56;1751030;82;21073;-78
2021/09/02 10:28:34;;;;;;;7.53;2.58;;;;;;;18.48;37.51;99572.94;1733805;82;21022;-77
2021/09/02 10:31:05;;;;;;;4.37;2.02;;;;;;;18.27;38.98;99585.25;1750792;82;21011;-78
2021/09/02 10:33:41;;;;;;;4.37;1.87;;;;;;;18.21;38.14;99579.44;1752205;82;21156;-80
2021/09/02 10:36:19;;;;;;;17.17;2.50;;;;;;;18.21;38.61;99583.92;1752310;82;21128;-77
2021/09/02 10:38:52;;;;;;;7.33;2.00;;;;;;;18.26;38.29;99583.08;1752387;82;21057;-78
2021/09/02 10:41:44;;;;;;;5.17;1.90;;;;;;;18.36;37.07;99567.24;1751576;82;21025;-77
2021/09/02 10:44:17;;;;;;;4.30;1.90;;;;;;;18.36;38.60;99573.91;1750897;82;21069;-77
2021/09/02 10:46:51;;;;;;;16.65;2.62;;;;;;;18.44;38.35;99579.47;1750481;82;21054;-78
2021/09/02 10:49:29;;;;;;;4.97;1.92;;;;;;;18.39;36.52;99586.98;1750067;82;21194;-78
2021/09/02 10:52:28;;;;;;;4.85;1.90;;;;;;;18.11;37.42;99589.13;1714290;83;20999;-78
2021/09/02 10:54:55;;;;;;;7.50;2.12;;;;;;;17.80;38.82;99591.41;1739942;82;21051;-77
2021/09/02 10:57:22;;;;;;;6.15;2.10;;;;;;;17.68;38.75;99600.34;1724661;82;21069;-78
2021/09/02 10:59:51;;;;;;;7.33;2.00;;;;;;;17.63;40.12;99606.50;1731095;82;21068;-78
2021/09/02 11:02:27;;;;;;;7.90;2.15;;;;;;;17.81;38.79;99593.16;1750100;80;21910;-77
2021/09/02 11:05:03;;;;;;;5.03;1.65;;;;;;;18.05;36.38;99599.41;1750855;80;21059;-78
2021/09/02 11:07:43;;;;;;;8.25;2.12;;;;;;;18.18;38.55;99593.02;1750895;80;21062;-79
2021/09/02 11:10:17;;;;;;;5.70;1.80;;;;;;;18.46;37.95;99604.20;1750807;80;21053;-78
2021/09/02 11:12:45;;;;;;;4.53;1.80;;;;;;;18.72;37.18;99591.95;1750448;81;21043;-77
2021/09/02 11:15:22;;;;;;;4.87;1.82;;;;;;;19.01;37.76;99597.67;1750323;80;21117;-77
2021/09/02 11:18:00;;;;;;;5.60;1.90;;;;;;;19.10;36.72;99598.75;1750441;82;21038;-77
2021/09/02 11:20:29;;;;;;;5.25;1.50;;;;;;;19.10;37.00;99611.61;1750457;82;21547;-77
2021/09/02 11:23:18;;;;;;;4.05;1.77;;;;;;;18.97;37.39;99614.40;1750348;80;21034;-77
2021/09/02 11:25:50;;;;;;;6.60;1.80;;;;;;;18.73;37.02;99625.67;1756177;81;21077;-77
2021/09/02 11:28:20;;;;;;;4.47;1.65;;;;;;;18.42;38.24;99637.39;1751409;80;21493;-77
2021/09/02 11:30:52;;;;;;;7.35;2.12;;;;;;;18.00;39.97;99655.70;1755631;80;21583;-76
2021/09/02 11:33:18;;;;;;;11.40;2.08;;;;;;;17.61;40.20;99666.51;1756188;81;21611;-77
2021/09/02 11:35:59;;;;;;;8.08;2.12;;;;;;;17.23;41.96;99661.80;1755666;80;21068;-77
2021/09/02 11:38:27;;;;;;;11.80;1.90;;;;;;;16.95;42.86;99671.26;1755778;81;21054;-77
2021/09/02 11:40:54;;;;;;;3.92;1.62;;;;;;;17.03;42.02;99659.25;1756043;80;21948;-76
2021/09/02 11:43:20;;;;;;;3.40;1.65;;;;;;;17.18;43.37;99660.80;1755849;80;21073;-77
2021/09/02 11:45:52;;;;;;;8.63;1.95;;;;;;;17.45;41.90;99661.94;1755684;81;21018;-77
2021/09/02 11:48:18;;;;;;;4.60;1.77;;;;;;;17.72;40.98;99648.41;1756234;81;21082;-78